Tropical Cyclones
[Index]
Main Index Home Page Stock Weather Photos Extreme Storms Discussion Storm News and Storm Chasing Reports Tropical Cyclones / Hurricanes / Typhoons Weather Data and Links Wild Fires / Bushfires Weather Observation Techniques Weather Picture Catalogue Tornado Pictures and Reports Stock Video Footage and DVDs for sale
Season 1991-1992 Tropical Cyclone GENE Track Map
Season 1991-1992 Summaries: [BoM-AU] [JTWC-AU] [JTWC-SIO] [JTWC-SPAC] [JTWC-SH]
<<- Previous TC | JTWC 1991-1992 Season | Next TC ->>

click for intensity scale information  Lat/long Grid: Show Hide

 Date Labels: Show Hide

Joint Typhoon Warning Centre Cyclone Data

Name: GENE

13 Mar 1992 18:00 UTC to 19 Mar 1992 00:00 UTC

    date/time    lat    long     hPa   cat  kts
1992-03-13 18   12.0   174.7W                 25          
1992-03-14 00   11.7   174.2W                 25          
1992-03-14 06   11.5   173.5W                 25          
1992-03-14 12   11.5   172.9W                 25          
1992-03-14 18   11.5   172.3W                 25          
1992-03-15 00   11.7   171.6W                 25          
1992-03-15 06   11.9   170.8W                 30          
1992-03-15 12   12.2   170.0W                 30          
1992-03-15 18   12.7   169.0W                 30          
1992-03-16 00   13.4   167.7W                 30          
1992-03-16 06   14.6   166.3W                 35          
1992-03-16 12   15.7   164.9W           1     40          
1992-03-16 18   16.9   163.8W           1     50          
1992-03-17 00   18.3   162.8W           2     55          
1992-03-17 06   19.9   161.9W           2     60          
1992-03-17 12   21.8   161.7W           2     55          
1992-03-17 18   23.7   161.7W           2     55          
1992-03-18 00   25.6   162.2W           1     50          
1992-03-18 06   27.2   162.9W           1     50          
1992-03-18 12   28.7   162.8W           1     45          
1992-03-18 18   30.1   161.5W           1     40          
1992-03-19 00   30.8   159.3W                 35          
Winds are 1-min average.

Tropical cyclone tracks developed by Michael Bath using data from the Joint Typhoon Warning Centre Best Tracks and Google Maps.


[Australian Severe Weather index] [Copyright Notice] [Email Contacts] [Search This Site] [Privacy Policy]
Document: tropical_cyclone_gene.htm Updated: 18 September 2016